Time;durP1;ratioP1;P1;durP2;ratioP2;P2;SDS_P1;SDS_P2;PMS_P1;PMS_P2;Temp;Humidity;BMP_temperature;BMP_pressure;BME280_temperature;BME280_humidity;BME280_pressure;Samples;Min_cycle;Max_cycle;Signal;HPM_P1;HPM_P2
2023/06/26 00:00:49;;;;;;;;;;;;;;;25.57;43.75;100240.72;4840610;29;6780;-73
2023/06/26 00:03:15;;;;;;;;;;;;;;;25.53;44.12;100236.44;4845832;29;6788;-73
2023/06/26 00:05:42;;;;;;;;;;;;;;;25.51;44.17;100232.97;4839086;29;7188;-73
2023/06/26 00:08:08;;;;;;;;;;;;;;;25.50;44.30;100237.34;4856202;29;7422;-73
2023/06/26 00:10:34;;;;;;;;;;;;;;;25.52;44.15;100242.56;4841364;29;6844;-73
2023/06/26 00:13:00;;;;;;;;;;;;;;;25.52;44.03;100248.66;4825367;29;6975;-75
2023/06/26 00:15:27;;;;;;;;;;;;;;;25.51;43.98;100243.47;4839633;29;6919;-73
2023/06/26 00:17:52;;;;;;;;;;;;;;;25.49;43.85;100242.56;4843206;29;7142;-73
2023/06/26 00:20:18;;;;;;;;;;;;;;;25.45;43.87;100243.53;4835432;29;6773;-73
2023/06/26 00:22:45;;;;;;;;;;;;;;;25.40;44.37;100245.34;4841718;29;6983;-73
2023/06/26 00:25:10;;;;;;;;;;;;;;;25.33;44.40;100242.84;4840271;29;6789;-73
2023/06/26 00:27:36;;;;;;;;;;;;;;;25.29;44.61;100238.50;4843401;29;6785;-73
2023/06/26 00:30:02;;;;;;;;;;;;;;;25.27;44.14;100242.06;4841972;29;6781;-73
2023/06/26 00:32:28;;;;;;;;;;;;;;;25.24;44.43;100235.97;4842861;29;7022;-74
2023/06/26 00:34:53;;;;;;;;;;;;;;;25.27;44.32;100242.91;4841960;29;6789;-73
2023/06/26 00:37:19;;;;;;;;;;;;;;;25.33;44.26;100245.47;4839645;29;6968;-73
2023/06/26 00:39:44;;;;;;;;;;;;;;;25.43;44.21;100240.06;4836912;29;6848;-73
2023/06/26 00:42:10;;;;;;;;;;;;;;;25.49;44.28;100239.94;4840690;29;6981;-73
2023/06/26 00:44:36;;;;;;;;;;;;;;;25.53;44.04;100241.69;4841028;29;7282;-73
2023/06/26 00:47:01;;;;;;;;;;;;;;;25.57;44.09;100245.97;4840091;29;7019;-73
2023/06/26 00:49:28;;;;;;;;;;;;;;;25.58;43.97;100245.06;4837211;29;7204;-73
2023/06/26 00:51:54;;;;;;;;;;;;;;;25.59;43.94;100236.34;4838532;29;7053;-74
2023/06/26 00:54:22;;;;;;;;;;;;;;;25.61;44.06;100239.78;4823939;29;8542;-73
2023/06/26 00:56:48;;;;;;;;;;;;;;;25.60;43.79;100239.81;4840228;29;7032;-73
2023/06/26 00:59:14;;;;;;;;;;;;;;;25.59;43.80;100249.47;4841051;29;7511;-74
2023/06/26 01:01:40;;;;;;;;;;;;;;;25.58;43.71;100242.44;4850000;29;8287;-73
2023/06/26 01:04:06;;;;;;;;;;;;;;;25.58;43.73;100250.31;4837945;29;6996;-73
2023/06/26 01:06:36;;;;;;;;;;;;;;;25.59;43.30;100249.47;4825466;29;6999;-74
2023/06/26 01:09:02;;;;;;;;;;;;;;;25.61;43.27;100239.78;4854446;29;6813;-73
2023/06/26 01:11:28;;;;;;;;;;;;;;;25.64;43.20;100239.72;4839716;29;7896;-74
2023/06/26 01:13:59;;;;;;;;;;;;;;;25.68;43.20;100237.03;4840792;29;6941;-73
2023/06/26 01:16:29;;;;;;;;;;;;;;;25.72;43.25;100234.34;4847189;29;6801;-73
2023/06/26 01:18:55;;;;;;;;;;;;;;;25.75;43.04;100233.44;4825640;29;7071;-73
2023/06/26 01:21:21;;;;;;;;;;;;;;;25.78;42.77;100230.75;4845155;29;7367;-73
2023/06/26 01:24:12;;;;;;;;;;;;;;;25.81;42.88;100235.94;4844141;29;7094;-74
2023/06/26 01:26:42;;;;;;;;;;;;;;;25.83;42.69;100234.16;4843221;29;6817;-73
2023/06/26 01:29:12;;;;;;;;;;;;;;;25.83;42.77;100231.53;4839526;29;6809;-73
2023/06/26 01:31:39;;;;;;;;;;;;;;;25.83;42.82;100239.41;4855373;29;6797;-73
2023/06/26 01:34:06;;;;;;;;;;;;;;;25.84;42.88;100230.63;4842113;29;6789;-73
2023/06/26 01:36:32;;;;;;;;;;;;;;;25.88;42.59;100231.44;4841698;29;7295;-74
2023/06/26 01:38:58;;;;;;;;;;;;;;;25.90;42.66;100234.91;4841650;29;6936;-74
2023/06/26 01:41:24;;;;;;;;;;;;;;;25.93;42.28;100240.97;4844973;29;7060;-74
2023/06/26 01:44:07;;;;;;;;;;;;;;;25.98;42.46;100234.75;4854206;29;7368;-74
2023/06/26 01:46:42;;;;;;;;;;;;;;;26.02;42.75;100233.81;4840121;29;6942;-74
2023/06/26 01:49:24;;;;;;;;;;;;;;;26.07;42.44;100250.34;4838140;29;6873;-74
2023/06/26 01:52:16;;;;;;;;;;;;;;;26.10;42.55;100245.06;4842001;29;6995;-74
2023/06/26 01:55:33;;;;;;;;;;;;;;;26.11;42.76;100259.91;4840136;29;6800;-73
2023/06/26 01:57:59;;;;;;;;;;;;;;;26.12;42.87;100268.63;4839850;29;7290;-74
2023/06/26 02:00:26;;;;;;;;;;;;;;;26.14;43.06;100272.97;4840373;29;6797;-74
2023/06/26 02:02:52;;;;;;;;;;;;;;;26.15;43.10;100277.31;4853703;29;9338;-74
2023/06/26 02:05:18;;;;;;;;;;;;;;;26.15;43.19;100282.56;4844985;29;6789;-74
2023/06/26 02:07:43;;;;;;;;;;;;;;;26.12;43.03;100280.00;4848515;29;6785;-75
2023/06/26 02:10:10;;;;;;;;;;;;;;;26.12;43.35;100282.63;4847838;29;6841;-74
2023/06/26 02:12:37;;;;;;;;;;;;;;;26.10;43.41;100284.44;4850105;29;6834;-74
2023/06/26 02:15:04;;;;;;;;;;;;;;;26.09;43.54;100287.06;4847442;29;6785;-73
2023/06/26 02:17:30;;;;;;;;;;;;;;;26.06;43.53;100290.63;4858280;29;7024;-74
2023/06/26 02:19:56;;;;;;;;;;;;;;;26.04;43.95;100289.78;4863442;29;7006;-74
2023/06/26 02:22:22;;;;;;;;;;;;;;;26.00;43.95;100286.34;4843495;29;7185;-74
2023/06/26 02:24:48;;;;;;;;;;;;;;;25.98;44.13;100292.50;4849925;29;6900;-74
2023/06/26 02:27:13;;;;;;;;;;;;;;;25.93;44.09;100298.72;4852303;29;6773;-74
2023/06/26 02:29:41;;;;;;;;;;;;;;;25.90;44.31;100298.78;4862315;29;6948;-74
2023/06/26 02:32:07;;;;;;;;;;;;;;;25.86;44.44;100298.88;4825136;29;7795;-74
2023/06/26 02:34:34;;;;;;;;;;;;;;;25.81;44.84;100304.19;4848360;29;6781;-74
2023/06/26 02:37:00;;;;;;;;;;;;;;;25.77;44.47;100313.00;4827953;29;7227;-73
2023/06/26 02:39:27;;;;;;;;;;;;;;;25.75;44.94;100312.16;4841432;29;6825;-73
2023/06/26 02:41:52;;;;;;;;;;;;;;;25.73;44.68;100313.94;4852684;29;7201;-73
2023/06/26 02:44:19;;;;;;;;;;;;;;;25.68;44.75;100316.66;4860860;29;6800;-74
2023/06/26 02:46:45;;;;;;;;;;;;;;;25.65;44.70;100320.19;4835963;29;6985;-76
2023/06/26 02:49:10;;;;;;;;;;;;;;;25.61;44.94;100312.38;4856196;29;7147;-75
2023/06/26 02:51:36;;;;;;;;;;;;;;;25.55;45.48;100313.34;4836353;29;6773;-74
2023/06/26 02:54:02;;;;;;;;;;;;;;;25.52;45.51;100319.50;4837432;29;6776;-76
2023/06/26 02:56:28;;;;;;;;;;;;;;;25.48;45.77;100323.03;4837979;29;6933;-74
2023/06/26 02:58:57;;;;;;;;;;;;;;;25.42;45.58;100332.78;4842021;29;6785;-74
2023/06/26 03:01:23;;;;;;;;;;;;;;;25.35;45.66;100330.22;4842200;29;6800;-73
2023/06/26 03:03:49;;;;;;;;;;;;;;;25.29;46.26;100330.31;4855389;29;7057;-74
2023/06/26 03:06:15;;;;;;;;;;;;;;;25.27;46.60;100339.09;4839803;29;6773;-74
2023/06/26 03:08:42;;;;;;;;;;;;;;;25.24;46.49;100335.59;4864156;29;6785;-74
2023/06/26 03:11:08;;;;;;;;;;;;;;;25.21;46.99;100334.81;4847218;29;7101;-73
2023/06/26 03:13:36;;;;;;;;;;;;;;;25.20;47.12;100338.28;4836239;29;6842;-74
2023/06/26 03:16:02;;;;;;;;;;;;;;;25.17;47.24;100338.34;4847091;29;6926;-73
2023/06/26 03:18:28;;;;;;;;;;;;;;;25.15;46.98;100345.38;4848396;29;6801;-74
2023/06/26 03:20:56;;;;;;;;;;;;;;;25.11;47.43;100341.91;4852999;29;6924;-73
2023/06/26 03:23:23;;;;;;;;;;;;;;;25.07;46.97;100342.88;4853660;29;7212;-73
2023/06/26 03:25:49;;;;;;;;;;;;;;;25.04;47.11;100343.75;4844666;29;7134;-74
2023/06/26 03:28:15;;;;;;;;;;;;;;;25.00;47.26;100347.28;4841712;29;7133;-74
2023/06/26 03:30:41;;;;;;;;;;;;;;;24.96;47.63;100351.75;4846534;29;6865;-74
2023/06/26 03:33:06;;;;;;;;;;;;;;;24.93;47.30;100350.91;4841900;29;7224;-74
2023/06/26 03:35:32;;;;;;;;;;;;;;;24.88;47.44;100352.69;4845241;29;6773;-73
2023/06/26 03:37:58;;;;;;;;;;;;;;;24.86;47.69;100351.84;4823036;29;7141;-73
2023/06/26 03:40:24;;;;;;;;;;;;;;;24.84;47.64;100361.50;4835003;29;6788;-71
2023/06/26 03:42:50;;;;;;;;;;;;;;;24.81;47.37;100365.88;4836118;29;6924;-70
2023/06/26 03:45:16;;;;;;;;;;;;;;;24.77;47.13;100364.16;4853316;29;7135;-72
2023/06/26 03:47:41;;;;;;;;;;;;;;;24.77;47.34;100372.00;4819401;29;7073;-71
2023/06/26 03:50:07;;;;;;;;;;;;;;;24.75;47.01;100372.91;4839724;29;7141;-71
2023/06/26 03:52:33;;;;;;;;;;;;;;;24.71;47.04;100371.22;4840657;29;7184;-70
2023/06/26 03:54:58;;;;;;;;;;;;;;;24.67;47.10;100375.63;4839460;29;6837;-71
2023/06/26 03:57:24;;;;;;;;;;;;;;;24.65;47.28;100377.41;4838263;29;7238;-72
2023/06/26 03:59:52;;;;;;;;;;;;;;;24.63;47.28;100381.78;4820709;29;6917;-71
2023/06/26 04:02:17;;;;;;;;;;;;;;;24.60;47.09;100389.66;4834450;29;6796;-72
2023/06/26 04:04:43;;;;;;;;;;;;;;;24.59;47.16;100385.31;4840953;29;7091;-70
2023/06/26 04:07:09;;;;;;;;;;;;;;;24.57;47.17;100387.09;4838073;29;6773;-72
2023/06/26 04:09:34;;;;;;;;;;;;;;;24.52;46.97;100392.38;4839791;29;6852;-71
2023/06/26 04:12:00;;;;;;;;;;;;;;;24.49;47.51;100389.78;4836249;29;6796;-71
2023/06/26 04:14:26;;;;;;;;;;;;;;;24.44;47.07;100392.47;4823079;29;7413;-71
2023/06/26 04:16:52;;;;;;;;;;;;;;;24.40;47.67;100389.00;4835479;29;6961;-72
2023/06/26 04:19:17;;;;;;;;;;;;;;;24.39;47.98;100402.09;4843713;29;6795;-71
2023/06/26 04:21:44;;;;;;;;;;;;;;;24.36;47.47;100402.97;4825728;29;6950;-69
2023/06/26 04:24:09;;;;;;;;;;;;;;;24.37;47.66;100402.09;4845653;29;6781;-70
2023/06/26 04:26:35;;;;;;;;;;;;;;;24.39;48.22;100396.84;4844756;29;6781;-72
2023/06/26 04:29:01;;;;;;;;;;;;;;;24.45;47.90;100403.78;4842885;29;6976;-72
2023/06/26 04:31:26;;;;;;;;;;;;;;;24.50;48.05;100404.63;4843801;29;6768;-70
2023/06/26 04:33:54;;;;;;;;;;;;;;;24.57;48.12;100398.41;4841332;29;6852;-71
2023/06/26 04:36:20;;;;;;;;;;;;;;;24.62;48.07;100403.59;4844967;29;7361;-70
2023/06/26 04:38:48;;;;;;;;;;;;;;;24.64;47.59;100407.09;4841639;29;6789;-70
2023/06/26 04:41:14;;;;;;;;;;;;;;;24.62;47.68;100403.59;4857671;29;7156;-71
2023/06/26 04:43:39;;;;;;;;;;;;;;;24.61;47.98;100396.63;4842789;29;6868;-71
2023/06/26 04:46:05;;;;;;;;;;;;;;;24.62;47.74;100398.38;4844138;29;7407;-73
2023/06/26 04:48:32;;;;;;;;;;;;;;;24.65;47.82;100403.59;4845819;29;6776;-69
2023/06/26 04:50:58;;;;;;;;;;;;;;;24.70;48.04;100412.25;4843363;29;6817;-71
2023/06/26 04:53:24;;;;;;;;;;;;;;;24.87;48.00;100406.00;4837647;29;6871;-70
2023/06/26 04:55:51;;;;;;;;;;;;;;;25.11;48.10;100415.34;4845046;29;6981;-70
2023/06/26 04:58:18;;;;;;;;;;;;;;;25.40;48.15;100419.34;4861150;29;6785;-71
2023/06/26 05:00:43;;;;;;;;;;;;;;;25.68;47.62;100421.63;4842799;29;7191;-73
2023/06/26 05:03:14;;;;;;;;;;;;;;;25.91;47.11;100417.78;4858658;29;7120;-71
2023/06/26 05:05:39;;;;;;;;;;;;;;;26.09;46.80;100419.25;4848219;29;7262;-71
2023/06/26 05:08:22;;;;;;;;;;;;;;;26.19;45.92;100415.63;4841929;29;7046;-70
2023/06/26 05:10:49;;;;;;;;;;;;;;;26.16;45.61;100426.13;4843318;29;7356;-72
2023/06/26 05:13:19;;;;;;;;;;;;;;;26.19;45.91;100430.47;4844699;29;7177;-70
2023/06/26 05:15:45;;;;;;;;;;;;;;;26.24;45.69;100435.66;4857311;29;6817;-70
2023/06/26 05:18:12;;;;;;;;;;;;;;;26.32;45.84;100433.78;4838136;29;7007;-71
2023/06/26 05:20:38;;;;;;;;;;;;;;;26.45;45.64;100437.91;4844902;29;6801;-70
2023/06/26 05:23:04;;;;;;;;;;;;;;;26.62;45.25;100444.66;4863598;29;6789;-71
2023/06/26 05:25:31;;;;;;;;;;;;;;;26.76;45.23;100447.91;4839721;29;6857;-71
2023/06/26 05:27:58;;;;;;;;;;;;;;;26.87;44.74;100444.19;4858784;29;6944;-72
2023/06/26 05:30:25;;;;;;;;;;;;;;;26.96;44.49;100444.06;4844897;29;6793;-71
2023/06/26 05:32:55;;;;;;;;;;;;;;;27.04;44.48;100449.16;4840933;29;7072;-72
2023/06/26 05:35:22;;;;;;;;;;;;;;;27.16;44.52;100448.03;4843543;29;6988;-71
2023/06/26 05:37:51;;;;;;;;;;;;;;;27.34;44.50;100438.03;4859611;29;7284;-71
2023/06/26 05:40:18;;;;;;;;;;;;;;;27.51;43.78;100438.50;4824810;29;7011;-72
2023/06/26 05:42:45;;;;;;;;;;;;;;;27.62;43.69;100442.72;4846480;29;6837;-71
2023/06/26 05:45:11;;;;;;;;;;;;;;;27.67;43.12;100443.47;4858896;29;7048;-72
2023/06/26 05:47:37;;;;;;;;;;;;;;;27.65;42.43;100448.78;4842533;29;6945;-72
2023/06/26 05:50:04;;;;;;;;;;;;;;;27.44;42.33;100455.38;4843155;29;6813;-72
2023/06/26 05:52:30;;;;;;;;;;;;;;;27.17;42.89;100457.66;4857208;29;6804;-72
2023/06/26 05:54:59;;;;;;;;;;;;;;;27.05;43.16;100453.50;4857025;29;7357;-71
2023/06/26 05:57:28;;;;;;;;;;;;;;;27.08;43.58;100468.38;4842385;29;6849;-72
2023/06/26 05:59:54;;;;;;;;;;;;;;;27.15;43.80;100457.69;4861019;29;6880;-72
2023/06/26 06:02:20;;;;;;;;;;;;;;;27.22;43.63;100461.06;4857668;29;7211;-70
2023/06/26 06:04:45;;;;;;;;;;;;;;;27.26;43.40;100462.75;4856771;29;7056;-71
2023/06/26 06:07:11;;;;;;;;;;;;;;;27.24;43.49;100467.19;4841501;29;7088;-72
2023/06/26 06:09:37;;;;;;;;;;;;;;;27.18;43.09;100469.91;4856552;29;6785;-73
2023/06/26 06:12:07;;;;;;;;;;;;;;;27.08;43.07;100463.97;4841998;29;6976;-72
2023/06/26 06:14:34;;;;;;;;;;;;;;;27.00;43.22;100466.75;4842427;29;7154;-72
2023/06/26 06:17:00;;;;;;;;;;;;;;;26.94;43.69;100476.53;4841430;29;6996;-71
2023/06/26 06:19:25;;;;;;;;;;;;;;;26.86;43.36;100474.88;4840577;29;6777;-72
2023/06/26 06:21:51;;;;;;;;;;;;;;;26.78;43.51;100470.66;4828103;29;7553;-72
2023/06/26 06:24:17;;;;;;;;;;;;;;;26.71;43.63;100477.78;4844845;29;6793;-72
2023/06/26 06:26:43;;;;;;;;;;;;;;;26.65;43.66;100480.53;4841893;29;6984;-71
2023/06/26 06:29:09;;;;;;;;;;;;;;;26.56;43.65;100494.72;4840221;29;6879;-71
2023/06/26 06:31:35;;;;;;;;;;;;;;;26.45;43.52;100495.72;4854538;29;6777;-73
2023/06/26 06:34:00;;;;;;;;;;;;;;;26.35;43.91;100488.88;4846618;29;6945;-71
2023/06/26 06:36:26;;;;;;;;;;;;;;;26.27;44.17;100503.91;4858726;29;7082;-71
2023/06/26 06:38:52;;;;;;;;;;;;;;;26.20;44.55;100506.66;4827941;29;7244;-70
2023/06/26 06:41:19;;;;;;;;;;;;;;;26.14;44.35;100517.19;4843901;29;7207;-71
2023/06/26 06:43:45;;;;;;;;;;;;;;;26.09;44.63;100526.91;4842617;29;7009;-71
2023/06/26 06:46:10;;;;;;;;;;;;;;;26.07;44.74;100533.94;4847063;29;6833;-71
2023/06/26 06:48:36;;;;;;;;;;;;;;;26.06;45.10;100524.31;4867592;29;6950;-74
2023/06/26 06:51:02;;;;;;;;;;;;;;;26.07;44.87;100540.06;4852256;29;7227;-73
2023/06/26 06:53:27;;;;;;;;;;;;;;;26.11;45.15;100537.38;4843852;29;6916;-73
2023/06/26 06:55:53;;;;;;;;;;;;;;;26.18;45.23;100534.66;4829335;29;7254;-73
2023/06/26 06:58:19;;;;;;;;;;;;;;;26.30;45.27;100531.00;4834206;29;6961;-73
2023/06/26 07:00:45;;;;;;;;;;;;;;;26.53;45.24;100535.03;4847063;29;6832;-72
2023/06/26 07:03:11;;;;;;;;;;;;;;;26.85;45.46;100540.66;4844631;29;6809;-73
2023/06/26 07:05:37;;;;;;;;;;;;;;;27.21;45.25;100537.38;4835982;29;7444;-73
2023/06/26 07:08:04;;;;;;;;;;;;;;;27.60;44.76;100540.16;4863803;29;7934;-73
2023/06/26 07:10:30;;;;;;;;;;;;;;;28.05;44.38;100541.81;4850585;29;7061;-73
2023/06/26 07:12:55;;;;;;;;;;;;;;;28.54;43.91;100533.66;4850217;29;6864;-73
2023/06/26 07:15:21;;;;;;;;;;;;;;;28.99;43.38;100536.97;4865293;29;6773;-72
2023/06/26 07:17:47;;;;;;;;;;;;;;;29.31;41.75;100540.47;4846607;29;7417;-73
2023/06/26 07:20:15;;;;;;;;;;;;;;;29.61;41.27;100532.63;4855532;29;6785;-73
2023/06/26 07:22:42;;;;;;;;;;;;;;;29.99;41.50;100537.66;4876357;29;7279;-73
2023/06/26 07:25:09;;;;;;;;;;;;;;;30.39;40.32;100538.19;4871514;29;6805;-73
2023/06/26 07:27:35;;;;;;;;;;;;;;;30.66;39.15;100546.16;4863486;29;6981;-73
2023/06/26 07:30:02;;;;;;;;;;;;;;;30.66;38.77;100552.28;4852555;29;6862;-73
2023/06/26 07:32:27;;;;;;;;;;;;;;;30.57;38.90;100556.06;4853849;29;7052;-73
2023/06/26 07:34:53;;;;;;;;;;;;;;;30.47;37.92;100562.59;4851968;29;6784;-73
2023/06/26 07:37:18;;;;;;;;;;;;;;;30.34;38.43;100555.06;4865839;29;6764;-73
2023/06/26 07:39:44;;;;;;;;;;;;;;;30.34;38.99;100565.63;4849460;29;6792;-73
2023/06/26 07:42:10;;;;;;;;;;;;;;;30.43;38.82;100561.81;4847497;29;6808;-73
2023/06/26 07:44:36;;;;;;;;;;;;;;;30.62;38.92;100562.09;4850860;29;6784;-73
2023/06/26 07:47:02;;;;;;;;;;;;;;;30.83;38.24;100564.06;4853200;29;6801;-73
2023/06/26 07:49:28;;;;;;;;;;;;;;;30.98;37.83;100586.50;4853144;29;6797;-73
2023/06/26 07:51:53;;;;;;;;;;;;;;;30.95;37.33;100583.97;4851536;29;6784;-73
2023/06/26 07:54:19;;;;;;;;;;;;;;;31.00;36.93;100593.47;4867891;29;7952;-74
2023/06/26 07:57:04;;;;;;;;;;;;;;;30.95;36.33;100594.53;4864967;29;7124;-72
2023/06/26 07:59:30;;;;;;;;;;;;;;;30.99;36.92;100590.84;4856269;29;7019;-73
2023/06/26 08:01:57;;;;;;;;;;;;;;;31.21;36.97;100592.78;4866241;29;6936;-73
2023/06/26 08:04:26;;;;;;;;;;;;;;;31.36;36.58;100592.25;4851171;29;6871;-73
2023/06/26 08:06:55;;;;;;;;;;;;;;;31.48;36.12;100592.69;4854030;29;6785;-73
2023/06/26 08:09:24;;;;;;;;;;;;;;;31.64;35.92;100593.88;4849823;29;6805;-73
2023/06/26 08:11:50;;;;;;;;;;;;;;;31.76;35.50;100592.56;4856816;29;6973;-74
2023/06/26 08:14:17;;;;;;;;;;;;;;;31.79;35.16;100589.78;4852853;29;7358;-73
2023/06/26 08:16:43;;;;;;;;;;;;;;;32.02;35.20;100595.16;4850333;29;6797;-74
2023/06/26 08:19:10;;;;;;;;;;;;;;;32.34;34.90;100593.88;4873070;29;6809;-74
2023/06/26 08:21:36;;;;;;;;;;;;;;;32.75;34.69;100592.25;4857542;29;6785;-73
2023/06/26 08:24:02;;;;;;;;;;;;;;;33.10;33.90;100595.22;4858797;29;6995;-74
2023/06/26 08:26:28;;;;;;;;;;;;;;;33.35;33.24;100599.44;4856965;29;6789;-73
2023/06/26 08:28:54;;;;;;;;;;;;;;;33.54;33.12;100599.50;4854736;29;6892;-73
2023/06/26 08:31:20;;;;;;;;;;;;;;;33.46;32.77;100607.81;4857137;29;7104;-72
2023/06/26 08:33:46;;;;;;;;;;;;;;;33.42;32.37;100600.03;4852445;29;8313;-73
2023/06/26 08:36:12;;;;;;;;;;;;;;;33.35;32.53;100600.31;4859001;29;6793;-73
2023/06/26 08:38:40;;;;;;;;;;;;;;;33.23;32.57;100598.22;4859239;29;6796;-72
2023/06/26 08:41:09;;;;;;;;;;;;;;;33.16;32.61;100605.56;4852975;29;6992;-73
2023/06/26 08:43:36;;;;;;;;;;;;;;;33.19;32.56;100616.06;4858935;29;6859;-73
2023/06/26 08:46:02;;;;;;;;;;;;;;;33.09;32.25;100620.06;4841689;29;6974;-73
2023/06/26 08:48:33;;;;;;;;;;;;;;;32.88;32.13;100614.66;4859134;29;6804;-73
2023/06/26 08:51:11;;;;;;;;;;;;;;;32.58;32.24;100632.75;4852158;29;6812;-73
2023/06/26 08:54:02;;;;;;;;;;;;;;;32.33;32.26;100631.94;4850113;29;7020;-73
2023/06/26 08:56:35;;;;;;;;;;;;;;;32.04;32.65;100622.44;4867770;29;6824;-73
2023/06/26 08:59:01;;;;;;;;;;;;;;;31.73;32.93;100625.31;4867666;29;7114;-73
2023/06/26 09:01:27;;;;;;;;;;;;;;;31.72;33.27;100620.94;4850560;29;6793;-73
2023/06/26 09:03:53;;;;;;;;;;;;;;;32.02;33.20;100614.59;4857650;29;7023;-73
2023/06/26 09:06:19;;;;;;;;;;;;;;;32.52;33.07;100613.50;4852303;29;7073;-73
2023/06/26 09:08:45;;;;;;;;;;;;;;;33.07;32.27;100609.50;4841443;29;6961;-73
2023/06/26 09:11:11;;;;;;;;;;;;;;;33.52;32.08;100617.31;4871652;29;7151;-73
2023/06/26 09:13:37;;;;;;;;;;;;;;;34.04;31.83;100619.38;4848069;29;6881;-73
2023/06/26 09:16:08;;;;;;;;;;;;;;;34.31;30.37;100607.50;4859650;29;6801;-73
2023/06/26 09:18:34;;;;;;;;;;;;;;;34.22;30.10;100616.75;4844493;29;6944;-73
2023/06/26 09:20:59;;;;;;;;;;;;;;;34.26;29.86;100618.34;4843725;29;8616;-73
2023/06/26 09:23:26;;;;;;;;;;;;;;;34.31;28.98;100626.94;4845005;29;6792;-73
2023/06/26 09:25:52;;;;;;;;;;;;;;;34.19;28.99;100630.22;4843958;29;7096;-73
2023/06/26 09:28:18;;;;;;;;;;;;;;;34.32;29.34;100631.34;4844155;29;7159;-72
2023/06/26 09:30:46;;;;;;;;;;;;;;;34.69;29.14;100631.38;4861613;29;6967;-71
2023/06/26 09:33:20;;;;;;;;;;;;;;;35.15;29.11;100624.63;4831136;29;7295;-70
2023/06/26 09:35:47;;;;;;;;;;;;;;;35.19;28.14;100628.88;4840805;29;6797;-70
2023/06/26 09:38:14;;;;;;;;;;;;;;;34.70;27.80;100638.41;4858118;29;6809;-70
2023/06/26 09:40:40;;;;;;;;;;;;;;;34.06;28.32;100643.22;4847163;29;6884;-71
2023/06/26 09:43:09;;;;;;;;;;;;;;;33.35;28.89;100647.22;4845968;29;6808;-72
2023/06/26 09:45:38;;;;;;;;;;;;;;;32.72;29.50;100635.69;4852203;29;6982;-72
2023/06/26 09:48:05;;;;;;;;;;;;;;;32.54;30.47;100642.63;4848109;29;6801;-70
2023/06/26 09:50:37;;;;;;;;;;;;;;;32.71;30.34;100643.72;4847291;29;7065;-71
2023/06/26 09:53:13;;;;;;;;;;;;;;;33.20;30.62;100643.47;4845943;29;6792;-72
2023/06/26 09:55:43;;;;;;;;;;;;;;;33.91;30.18;100650.09;4842006;29;6812;-72
2023/06/26 09:58:14;;;;;;;;;;;;;;;34.72;28.32;100651.63;4841736;29;6800;-72
2023/06/26 10:00:42;;;;;;;;;;;;;;;34.88;27.10;100657.06;4842113;29;7174;-72
2023/06/26 10:03:08;;;;;;;;;;;;;;;34.60;27.60;100647.78;4843300;29;6813;-72
2023/06/26 10:05:34;;;;;;;;;;;;;;;34.75;28.10;100647.00;4842043;29;6785;-72
2023/06/26 10:08:02;;;;;;;;;;;;;;;34.91;27.14;100654.22;4841720;29;6856;-73
2023/06/26 10:10:29;;;;;;;;;;;;;;;34.76;27.23;100659.38;4840652;29;6856;-72
2023/06/26 10:13:04;;;;;;;;;;;;;;;34.55;27.65;100653.34;4841596;29;6813;-72
2023/06/26 10:15:31;;;;;;;;;;;;;;;34.46;28.01;100657.25;4842665;29;6817;-71
2023/06/26 10:17:58;;;;;;;;;;;;;;;34.41;27.58;100659.31;4841910;29;6777;-71
2023/06/26 10:20:26;;;;;;;;;;;;;;;34.65;27.69;100667.03;4860006;29;6797;-71
2023/06/26 10:22:57;;;;;;;;;;;;;;;34.94;26.79;100664.72;4827546;29;7036;-72
2023/06/26 10:25:25;;;;;;;;;;;;;;;35.32;26.79;100655.75;4858807;29;7272;-71
2023/06/26 10:27:58;;;;;;;;;;;;;;;35.69;26.49;100643.16;4847475;29;7176;-72
2023/06/26 10:30:29;;;;;;;;;;;;;;;36.06;25.98;100653.63;4846028;29;7013;-72
2023/06/26 10:32:56;;;;;;;;;;;;;;;36.45;24.80;100643.41;4843101;29;7108;-72
2023/06/26 10:35:24;;;;;;;;;;;;;;;36.81;24.05;100647.59;4839548;29;6869;-72
2023/06/26 10:37:51;;;;;;;;;;;;;;;37.13;24.34;100635.09;4858368;29;7263;-72
2023/06/26 10:40:27;;;;;;;;;;;;;;;37.44;24.25;100634.09;4843462;29;7235;-72
2023/06/26 10:43:08;;;;;;;;;;;;;;;37.83;23.82;100654.91;4862959;29;6817;-72
2023/06/26 10:45:35;;;;;;;;;;;;;;;38.22;23.62;100663.19;4842571;29;6785;-72
2023/06/26 10:48:01;;;;;;;;;;;;;;;38.33;22.48;100648.13;4842330;29;6800;-72
2023/06/26 10:50:32;;;;;;;;;;;;;;;38.31;21.97;100658.06;4825677;29;7142;-72
2023/06/26 10:53:34;;;;;;;;;;;;;;;38.26;21.81;100665.56;4823856;29;7213;-70
2023/06/26 10:56:05;;;;;;;;;;;;;;;38.25;21.76;100669.19;4845109;29;7121;-72
2023/06/26 10:58:41;;;;;;;;;;;;;;;37.93;21.95;100664.06;4841634;29;6937;-72
2023/06/26 11:01:23;;;;;;;;;;;;;;;37.81;21.67;100651.47;4841379;29;6821;-71
2023/06/26 11:04:06;;;;;;;;;;;;;;;37.71;21.32;100668.09;4836568;29;7282;-70
2023/06/26 11:06:34;;;;;;;;;;;;;;;37.02;21.93;100681.97;4840091;29;6881;-72
2023/06/26 11:09:07;;;;;;;;;;;;;;;36.13;22.24;100686.13;4840821;29;6994;-71
2023/06/26 11:11:51;;;;;;;;;;;;;;;35.06;23.27;100687.22;4843439;29;6998;-71
2023/06/26 11:14:19;;;;;;;;;;;;;;;34.24;23.53;100685.84;4843190;29;6870;-72
2023/06/26 11:16:45;;;;;;;;;;;;;;;33.79;24.22;100684.28;4861768;29;6848;-71
2023/06/26 11:19:13;;;;;;;;;;;;;;;33.89;24.41;100675.88;4858739;29;7147;-72
2023/06/26 11:21:39;;;;;;;;;;;;;;;34.36;24.46;100677.25;4859121;29;6789;-71
2023/06/26 11:24:09;;;;;;;;;;;;;;;34.54;24.35;100686.22;4843575;29;6776;-70
2023/06/26 11:26:43;;;;;;;;;;;;;;;34.61;23.75;100684.09;4842164;29;6789;-70
2023/06/26 11:29:10;;;;;;;;;;;;;;;34.99;24.33;100686.66;4858522;29;7063;-71
2023/06/26 11:31:41;;;;;;;;;;;;;;;35.55;23.40;100682.97;4844681;29;6995;-71
2023/06/26 11:34:11;;;;;;;;;;;;;;;36.08;23.25;100683.72;4838700;29;6797;-71
2023/06/26 11:36:41;;;;;;;;;;;;;;;36.69;23.20;100685.69;4851169;29;6808;-71
2023/06/26 11:39:07;;;;;;;;;;;;;;;37.26;22.55;100684.19;4845221;29;6800;-73
2023/06/26 11:41:35;;;;;;;;;;;;;;;37.20;21.89;100696.09;4847099;29;6773;-71
2023/06/26 11:44:08;;;;;;;;;;;;;;;36.60;21.48;100687.06;4861562;29;7140;-73
2023/06/26 11:46:37;;;;;;;;;;;;;;;36.38;21.64;100687.44;4840311;29;6821;-70
2023/06/26 11:49:07;;;;;;;;;;;;;;;36.53;21.81;100691.03;4857128;29;6939;-69
2023/06/26 11:51:33;;;;;;;;;;;;;;;36.92;21.93;100703.03;4838364;29;6804;-72
2023/06/26 11:54:02;;;;;;;;;;;;;;;37.36;21.51;100696.03;4856574;29;7185;-72
2023/06/26 11:56:29;;;;;;;;;;;;;;;37.70;21.20;100702.94;4846558;29;6885;-72
2023/06/26 11:59:06;;;;;;;;;;;;;;;37.64;20.56;100693.50;4845879;29;7284;-71
2023/06/26 12:01:46;;;;;;;;;;;;;;;37.06;20.42;100701.38;4843366;29;7800;-71
2023/06/26 12:04:17;;;;;;;;;;;;;;;36.55;20.67;100714.03;4843409;29;6808;-72
2023/06/26 12:06:48;;;;;;;;;;;;;;;36.32;21.37;100715.31;4858452;29;6809;-71
2023/06/26 12:09:14;;;;;;;;;;;;;;;36.24;20.93;100713.06;4826874;29;6981;-70
2023/06/26 12:11:44;;;;;;;;;;;;;;;36.10;21.42;100719.16;4845441;29;7659;-70
2023/06/26 12:14:11;;;;;;;;;;;;;;;35.98;21.15;100715.34;4848107;29;6796;-70
2023/06/26 12:16:40;;;;;;;;;;;;;;;35.66;21.17;100738.41;4861270;29;6780;-72
2023/06/26 12:19:08;;;;;;;;;;;;;;;35.26;22.00;100735.94;4839489;29;7350;-71
2023/06/26 12:21:36;;;;;;;;;;;;;;;34.89;22.42;100743.97;4847694;29;6793;-71
2023/06/26 12:24:03;;;;;;;;;;;;;;;34.49;22.47;100752.91;4844526;29;7060;-71
2023/06/26 12:26:29;;;;;;;;;;;;;;;34.21;22.24;100751.53;4860345;29;6808;-70
2023/06/26 12:29:15;;;;;;;;;;;;;;;33.97;22.33;100763.25;4843240;29;6996;-71
2023/06/26 12:31:43;;;;;;;;;;;;;;;33.87;22.50;100754.84;4842000;29;6813;-72
2023/06/26 12:34:17;;;;;;;;;;;;;;;34.04;22.51;100752.31;4858482;29;6964;-70
2023/06/26 12:36:45;;;;;;;;;;;;;;;34.39;22.28;100740.97;4845170;29;6956;-71
2023/06/26 12:39:12;;;;;;;;;;;;;;;34.85;22.45;100742.38;4846361;29;7247;-70
2023/06/26 12:41:51;;;;;;;;;;;;;;;35.38;22.21;100747.78;4857132;29;6804;-71
2023/06/26 12:44:36;;;;;;;;;;;;;;;35.91;21.65;100755.72;4849689;29;7106;-70
2023/06/26 12:47:03;;;;;;;;;;;;;;;36.27;20.94;100744.06;4861717;29;6876;-71
2023/06/26 12:49:42;;;;;;;;;;;;;;;36.47;20.58;100734.06;4844084;29;6785;-70
2023/06/26 12:52:14;;;;;;;;;;;;;;;36.66;20.46;100732.09;4846036;29;7284;-70